RSC33MY GCLA-GCXO
Flight info
| Callsign | RSC33MY |
|---|---|
| Flight time | N/A |
| Altitude | 13000 |
| Route | TFN |
| Aircraft | AT76/M-SDFGIRY/S |
Departure
| Time | 2026-04-23 19:35 |
|---|---|
| Airport | La Palma Airport (GCLA) |
Arrival
| Time | N/A |
|---|---|
| Airport | Tenerife Norte-Ciudad de La Laguna Airport (GCXO) |
| Time | Latitude | Longitude | Altitude | Speed | Heading |
|---|---|---|---|---|---|
| 2026-04-23 19:22 | 28.62246 | -17.75362 | 100 ft | 0 kts | 90° |
| 2026-04-23 19:28 | 28.62245 | -17.75399 | 100 ft | 4 kts | 83° |
| 2026-04-23 19:28 | 28.62225 | -17.75439 | 101 ft | 1 kts | 358° |
| 2026-04-23 19:29 | 28.62221 | -17.75439 | 101 ft | 0 kts | 358° |
| 2026-04-23 19:31 | 28.62246 | -17.75439 | 100 ft | 8 kts | 358° |
| 2026-04-23 19:31 | 28.62319 | -17.75442 | 99 ft | 13 kts | 358° |
| 2026-04-23 19:31 | 28.62422 | -17.75445 | 97 ft | 16 kts | 359° |
| 2026-04-23 19:31 | 28.62541 | -17.75450 | 94 ft | 18 kts | 356° |
| 2026-04-23 19:32 | 28.62647 | -17.75523 | 94 ft | 19 kts | 317° |
| 2026-04-23 19:32 | 28.62761 | -17.75561 | 91 ft | 19 kts | 359° |
| 2026-04-23 19:32 | 28.62896 | -17.75562 | 85 ft | 20 kts | 0° |
| 2026-04-23 19:32 | 28.63038 | -17.75567 | 82 ft | 21 kts | 360° |
| 2026-04-23 19:33 | 28.63182 | -17.75570 | 80 ft | 21 kts | 359° |
| 2026-04-23 19:33 | 28.63325 | -17.75572 | 76 ft | 21 kts | 0° |
| 2026-04-23 19:33 | 28.63600 | -17.75558 | 70 ft | 11 kts | 5° |
| 2026-04-23 19:34 | 28.63617 | -17.75571 | 73 ft | 0 kts | 274° |
| 2026-04-23 19:34 | 28.63611 | -17.75577 | 74 ft | 2 kts | 224° |
| 2026-04-23 19:34 | 28.63499 | -17.75576 | 75 ft | 42 kts | 179° |
| 2026-04-23 19:35 | 28.63007 | -17.75568 | 82 ft | 99 kts | 178° |
| 2026-04-23 19:35 | 28.62203 | -17.75516 | 329 ft | 120 kts | 174° |
| 2026-04-23 19:35 | 28.61358 | -17.75419 | 826 ft | 128 kts | 170° |
| 2026-04-23 19:35 | 28.60439 | -17.75239 | 1272 ft | 139 kts | 169° |
| 2026-04-23 19:36 | 28.59682 | -17.74588 | 1753 ft | 144 kts | 114° |
| 2026-04-23 19:36 | 28.59239 | -17.73496 | 2154 ft | 159 kts | 112° |
| 2026-04-23 19:36 | 28.58742 | -17.72330 | 2711 ft | 167 kts | 114° |
| 2026-04-23 19:36 | 28.58211 | -17.71155 | 3302 ft | 171 kts | 116° |
| 2026-04-23 19:37 | 28.57638 | -17.69972 | 3904 ft | 168 kts | 117° |
| 2026-04-23 19:37 | 28.57064 | -17.68850 | 4417 ft | 162 kts | 118° |
| 2026-04-23 19:37 | 28.56482 | -17.67758 | 4867 ft | 165 kts | 120° |
| 2026-04-23 19:37 | 28.55852 | -17.66632 | 5385 ft | 172 kts | 121° |
| 2026-04-23 19:38 | 28.55191 | -17.65480 | 5954 ft | 175 kts | 122° |
| 2026-04-23 19:38 | 28.54515 | -17.64312 | 6561 ft | 177 kts | 122° |
| 2026-04-23 19:38 | 28.53833 | -17.63136 | 7118 ft | 179 kts | 122° |
| 2026-04-23 19:38 | 28.53149 | -17.61962 | 7670 ft | 181 kts | 123° |
| 2026-04-23 19:39 | 28.52445 | -17.60760 | 8223 ft | 184 kts | 123° |
| 2026-04-23 19:39 | 28.51730 | -17.59544 | 8774 ft | 186 kts | 124° |
| 2026-04-23 19:39 | 28.51008 | -17.58317 | 9352 ft | 188 kts | 125° |
| 2026-04-23 19:39 | 28.50277 | -17.57078 | 9907 ft | 190 kts | 126° |
| 2026-04-23 19:40 | 28.49536 | -17.55825 | 10421 ft | 191 kts | 126° |
| 2026-04-23 19:40 | 28.48790 | -17.54564 | 10926 ft | 193 kts | 126° |
| 2026-04-23 19:40 | 28.48041 | -17.53297 | 11451 ft | 194 kts | 127° |
| 2026-04-23 19:40 | 28.47290 | -17.52025 | 11965 ft | 195 kts | 127° |
| 2026-04-23 19:41 | 28.46543 | -17.50761 | 12466 ft | 195 kts | 127° |
| 2026-04-23 19:41 | 28.45743 | -17.49421 | 12712 ft | 214 kts | 128° |
| 2026-04-23 19:41 | 28.44860 | -17.47975 | 12929 ft | 233 kts | 128° |
| 2026-04-23 19:41 | 28.43890 | -17.46404 | 13037 ft | 254 kts | 126° |
| 2026-04-23 19:42 | 28.43265 | -17.44452 | 13078 ft | 275 kts | 95° |
| 2026-04-23 19:42 | 28.43338 | -17.42235 | 13094 ft | 289 kts | 82° |
| 2026-04-23 19:42 | 28.43634 | -17.39922 | 13095 ft | 301 kts | 80° |
| 2026-04-23 19:42 | 28.43960 | -17.37532 | 13096 ft | 309 kts | 81° |
| 2026-04-23 19:43 | 28.44236 | -17.35104 | 13096 ft | 310 kts | 83° |
| 2026-04-23 19:43 | 28.44448 | -17.32706 | 13094 ft | 310 kts | 84° |
| 2026-04-23 19:43 | 28.44661 | -17.30267 | 13097 ft | 311 kts | 83° |
| 2026-04-23 19:43 | 28.44885 | -17.27818 | 13098 ft | 311 kts | 83° |